Glasgow, MT (59230)

10:39 AM MDT on July 26, 2016 (GMT -0600)
APRSWXNET | | Change Station

Elev 2211 ft 48.19 °N, 106.61 °W | Updated 34 minutes ago

Partly Cloudy
Partly Cloudy
75 °F
Feels Like 77 °F
N
Wind Variable Wind from North
Gusts 0.0 mph

Today
High -- | Low -- °F
--% Chance of Precip.
Yesterday
High -- | Low -- °F
Precip. -- in
Pressure 30.03 in
Visibility 10.0 miles
Clouds Few 10000 ft
Heat Index 77 °F
Dew Point 61 °F
Humidity 61%
Rainfall in
Snow Depth Not available.
5:34 AM 8:49 PM
Waning Gibbous, 53% visible
METAR KGGW 261553Z AUTO 06014KT 10SM FEW100 23/16 A3006 RMK AO2 SLP169 T02330161
Pressure 30.03 in
Visibility 10.0 miles
Clouds Few 10000 ft
Heat Index 77 °F
Dew Point 61 °F
Humidity 61%
Rainfall in
Snow Depth Not available.
5:34 AM 8:49 PM
Waning Gibbous, 53% visible
METAR KGGW 261553Z AUTO 06014KT 10SM FEW100 23/16 A3006 RMK AO2 SLP169 T02330161

10-Day Weather Forecast

Almanac

Astronomy

Jul. 26, 2016 Rise Set
Actual Time
Civil Twilight
Nautical Twilight
Astronomical Twilight
Moon
Length of Visible Light
Length of Day
Tomorrow will be .
, % of the Moon is Illuminated

Today's Extremes

State Highs State Lows

Community

WunderPhotos

Upload Photos

1,927,626 photos uploaded!

WunderBlog® & News

Nearby

Air Quality

  Air Quality AQ Index Pollutant
Not available.

Snow Depth

Station Depth Elevation

Earthquake Activity

City Distance Mag. Time & Date
Minimum magnitude displayed is 2.5.

Coastal Water Temperatures

Place Temperature

Stations

Nearby Weather Stations

Station Location Temp. Windchill Dew Point Humidity Wind Precip. Elev Updated Type
                   

Watches & Warnings

There are currently no watches in effect.